sensor_id;sensor_type;location;lat;lon;timestamp;P1;durP1;ratioP1;P2;durP2;ratioP2
20326;SDS011;20947;47.816;9.644;2022-08-01T00:00:54;2.78;;;1.40;;
20326;SDS011;20947;47.816;9.644;2022-08-01T00:04:55;2.53;;;1.55;;
20326;SDS011;20947;47.816;9.644;2022-08-01T00:08:58;2.53;;;1.52;;
20326;SDS011;20947;47.816;9.644;2022-08-01T00:13:03;2.30;;;1.40;;
20326;SDS011;20947;47.816;9.644;2022-08-01T00:17:06;2.75;;;1.40;;
20326;SDS011;20947;47.816;9.644;2022-08-01T00:21:09;2.20;;;1.50;;
20326;SDS011;20947;47.816;9.644;2022-08-01T00:25:12;2.50;;;1.35;;
20326;SDS011;20947;47.816;9.644;2022-08-01T00:29:12;2.30;;;1.50;;
20326;SDS011;20947;47.816;9.644;2022-08-01T00:33:13;1.80;;;1.30;;
20326;SDS011;20947;47.816;9.644;2022-08-01T00:37:13;2.35;;;1.30;;
20326;SDS011;20947;47.816;9.644;2022-08-01T00:41:19;2.40;;;1.60;;
20326;SDS011;20947;47.816;9.644;2022-08-01T00:45:22;2.70;;;1.45;;
20326;SDS011;20947;47.816;9.644;2022-08-01T00:49:28;2.50;;;1.25;;
20326;SDS011;20947;47.816;9.644;2022-08-01T00:53:29;2.92;;;1.65;;
20326;SDS011;20947;47.816;9.644;2022-08-01T00:57:29;2.50;;;1.48;;
20326;SDS011;20947;47.816;9.644;2022-08-01T01:01:32;2.28;;;1.50;;
20326;SDS011;20947;47.816;9.644;2022-08-01T01:05:34;2.30;;;1.30;;
20326;SDS011;20947;47.816;9.644;2022-08-01T01:14:05;2.78;;;1.50;;
20326;SDS011;20947;47.816;9.644;2022-08-01T01:31:35;2.30;;;1.33;;
20326;SDS011;20947;47.816;9.644;2022-08-01T01:35:52;2.25;;;1.30;;
20326;SDS011;20947;47.816;9.644;2022-08-01T01:40:00;2.30;;;1.40;;
20326;SDS011;20947;47.816;9.644;2022-08-01T01:44:02;3.30;;;1.60;;
20326;SDS011;20947;47.816;9.644;2022-08-01T01:48:05;2.10;;;1.43;;
20326;SDS011;20947;47.816;9.644;2022-08-01T01:52:09;2.90;;;1.52;;
20326;SDS011;20947;47.816;9.644;2022-08-01T01:56:12;1.80;;;1.20;;
20326;SDS011;20947;47.816;9.644;2022-08-01T02:00:20;2.20;;;1.40;;
20326;SDS011;20947;47.816;9.644;2022-08-01T02:04:22;2.40;;;1.25;;
20326;SDS011;20947;47.816;9.644;2022-08-01T02:08:25;2.83;;;1.30;;
20326;SDS011;20947;47.816;9.644;2022-08-01T02:12:35;3.15;;;1.40;;
20326;SDS011;20947;47.816;9.644;2022-08-01T02:16:41;2.40;;;1.60;;
20326;SDS011;20947;47.816;9.644;2022-08-01T02:20:44;3.30;;;1.50;;
20326;SDS011;20947;47.816;9.644;2022-08-01T02:24:49;3.20;;;1.30;;
20326;SDS011;20947;47.816;9.644;2022-08-01T02:29:05;1.77;;;1.20;;
20326;SDS011;20947;47.816;9.644;2022-08-01T02:33:44;2.60;;;1.40;;
20326;SDS011;20947;47.816;9.644;2022-08-01T02:37:41;2.03;;;1.40;;
20326;SDS011;20947;47.816;9.644;2022-08-01T02:41:44;2.28;;;1.40;;
20326;SDS011;20947;47.816;9.644;2022-08-01T02:45:51;2.60;;;1.42;;
20326;SDS011;20947;47.816;9.644;2022-08-01T02:49:54;3.30;;;1.40;;
20326;SDS011;20947;47.816;9.644;2022-08-01T02:53:58;2.47;;;1.60;;
20326;SDS011;20947;47.816;9.644;2022-08-01T02:58:03;2.15;;;1.40;;
20326;SDS011;20947;47.816;9.644;2022-08-01T03:02:08;2.90;;;1.40;;
20326;SDS011;20947;47.816;9.644;2022-08-01T03:06:12;2.25;;;1.60;;
20326;SDS011;20947;47.816;9.644;2022-08-01T03:10:14;2.38;;;1.33;;
20326;SDS011;20947;47.816;9.644;2022-08-01T03:14:23;3.60;;;1.40;;
20326;SDS011;20947;47.816;9.644;2022-08-01T03:18:30;2.50;;;1.60;;
20326;SDS011;20947;47.816;9.644;2022-08-01T03:22:34;3.88;;;1.50;;
20326;SDS011;20947;47.816;9.644;2022-08-01T03:26:39;2.20;;;1.20;;
20326;SDS011;20947;47.816;9.644;2022-08-01T03:30:41;3.30;;;1.50;;
20326;SDS011;20947;47.816;9.644;2022-08-01T03:34:43;1.75;;;1.20;;
20326;SDS011;20947;47.816;9.644;2022-08-01T03:38:43;3.40;;;1.40;;
20326;SDS011;20947;47.816;9.644;2022-08-01T03:42:59;1.90;;;1.30;;
20326;SDS011;20947;47.816;9.644;2022-08-01T03:47:09;1.70;;;1.20;;
20326;SDS011;20947;47.816;9.644;2022-08-01T03:51:11;2.00;;;1.23;;
20326;SDS011;20947;47.816;9.644;2022-08-01T03:55:16;1.65;;;1.20;;
20326;SDS011;20947;47.816;9.644;2022-08-01T03:59:21;2.47;;;1.40;;
20326;SDS011;20947;47.816;9.644;2022-08-01T04:03:22;2.77;;;1.33;;
20326;SDS011;20947;47.816;9.644;2022-08-01T04:07:25;2.23;;;1.33;;
20326;SDS011;20947;47.816;9.644;2022-08-01T04:11:34;2.42;;;1.30;;
20326;SDS011;20947;47.816;9.644;2022-08-01T04:15:35;2.30;;;1.48;;
20326;SDS011;20947;47.816;9.644;2022-08-01T04:19:36;1.90;;;1.20;;
20326;SDS011;20947;47.816;9.644;2022-08-01T04:23:36;2.10;;;1.50;;
20326;SDS011;20947;47.816;9.644;2022-08-01T04:27:42;2.38;;;1.40;;
20326;SDS011;20947;47.816;9.644;2022-08-01T04:31:51;2.40;;;1.30;;
20326;SDS011;20947;47.816;9.644;2022-08-01T04:35:59;2.60;;;1.50;;
20326;SDS011;20947;47.816;9.644;2022-08-01T04:40:04;2.10;;;1.30;;
20326;SDS011;20947;47.816;9.644;2022-08-01T04:44:09;2.30;;;1.50;;
20326;SDS011;20947;47.816;9.644;2022-08-01T04:48:18;1.80;;;1.20;;
20326;SDS011;20947;47.816;9.644;2022-08-01T04:52:31;1.70;;;1.20;;
20326;SDS011;20947;47.816;9.644;2022-08-01T04:56:38;1.80;;;1.30;;
20326;SDS011;20947;47.816;9.644;2022-08-01T05:00:41;2.35;;;1.40;;
20326;SDS011;20947;47.816;9.644;2022-08-01T05:04:49;2.83;;;1.48;;
20326;SDS011;20947;47.816;9.644;2022-08-01T05:08:50;2.30;;;1.35;;
20326;SDS011;20947;47.816;9.644;2022-08-01T05:12:53;2.20;;;1.20;;
20326;SDS011;20947;47.816;9.644;2022-08-01T05:16:56;2.20;;;1.30;;
20326;SDS011;20947;47.816;9.644;2022-08-01T05:20:56;2.83;;;1.40;;
20326;SDS011;20947;47.816;9.644;2022-08-01T05:24:59;2.47;;;1.30;;
20326;SDS011;20947;47.816;9.644;2022-08-01T05:29:05;1.90;;;1.20;;
20326;SDS011;20947;47.816;9.644;2022-08-01T05:33:06;2.40;;;1.30;;
20326;SDS011;20947;47.816;9.644;2022-08-01T05:37:07;1.88;;;1.30;;
20326;SDS011;20947;47.816;9.644;2022-08-01T05:41:08;2.30;;;1.30;;
20326;SDS011;20947;47.816;9.644;2022-08-01T05:45:11;2.70;;;1.40;;
20326;SDS011;20947;47.816;9.644;2022-08-01T05:49:14;1.90;;;1.27;;
20326;SDS011;20947;47.816;9.644;2022-08-01T05:53:19;1.90;;;1.33;;
20326;SDS011;20947;47.816;9.644;2022-08-01T05:57:22;2.38;;;1.35;;
20326;SDS011;20947;47.816;9.644;2022-08-01T06:01:28;2.00;;;1.42;;
20326;SDS011;20947;47.816;9.644;2022-08-01T06:05:28;2.50;;;1.40;;
20326;SDS011;20947;47.816;9.644;2022-08-01T06:09:29;2.00;;;1.30;;
20326;SDS011;20947;47.816;9.644;2022-08-01T06:13:32;2.20;;;1.30;;
20326;SDS011;20947;47.816;9.644;2022-08-01T06:17:37;2.40;;;1.35;;
20326;SDS011;20947;47.816;9.644;2022-08-01T06:21:43;2.30;;;1.30;;
20326;SDS011;20947;47.816;9.644;2022-08-01T06:25:51;1.90;;;1.40;;
20326;SDS011;20947;47.816;9.644;2022-08-01T06:29:56;2.22;;;1.20;;
20326;SDS011;20947;47.816;9.644;2022-08-01T06:33:57;1.80;;;1.30;;
20326;SDS011;20947;47.816;9.644;2022-08-01T06:38:00;2.17;;;1.40;;
20326;SDS011;20947;47.816;9.644;2022-08-01T06:42:05;2.23;;;1.30;;
20326;SDS011;20947;47.816;9.644;2022-08-01T06:46:08;2.20;;;1.35;;
20326;SDS011;20947;47.816;9.644;2022-08-01T06:50:11;2.72;;;1.40;;
20326;SDS011;20947;47.816;9.644;2022-08-01T06:54:14;2.28;;;1.30;;
20326;SDS011;20947;47.816;9.644;2022-08-01T06:58:15;2.03;;;1.40;;
20326;SDS011;20947;47.816;9.644;2022-08-01T07:02:18;6.75;;;1.50;;
20326;SDS011;20947;47.816;9.644;2022-08-01T07:06:21;3.40;;;1.70;;
20326;SDS011;20947;47.816;9.644;2022-08-01T07:10:27;1.90;;;1.20;;
20326;SDS011;20947;47.816;9.644;2022-08-01T07:14:30;5.27;;;1.40;;
20326;SDS011;20947;47.816;9.644;2022-08-01T07:18:33;2.90;;;1.10;;
20326;SDS011;20947;47.816;9.644;2022-08-01T07:22:33;30.25;;;2.95;;
20326;SDS011;20947;47.816;9.644;2022-08-01T07:26:45;21.75;;;2.65;;
20326;SDS011;20947;47.816;9.644;2022-08-01T07:30:53;13.63;;;2.00;;
20326;SDS011;20947;47.816;9.644;2022-08-01T07:34:54;19.67;;;2.40;;
20326;SDS011;20947;47.816;9.644;2022-08-01T07:38:57;17.55;;;2.33;;
20326;SDS011;20947;47.816;9.644;2022-08-01T07:43:00;13.40;;;2.10;;
20326;SDS011;20947;47.816;9.644;2022-08-01T07:47:04;20.83;;;2.67;;
20326;SDS011;20947;47.816;9.644;2022-08-01T07:51:07;9.70;;;2.80;;
20326;SDS011;20947;47.816;9.644;2022-08-01T07:55:10;9.35;;;2.55;;
20326;SDS011;20947;47.816;9.644;2022-08-01T07:59:11;10.88;;;3.28;;
20326;SDS011;20947;47.816;9.644;2022-08-01T08:03:17;13.55;;;2.92;;
20326;SDS011;20947;47.816;9.644;2022-08-01T08:07:17;9.27;;;2.70;;
20326;SDS011;20947;47.816;9.644;2022-08-01T08:11:20;11.40;;;2.30;;
20326;SDS011;20947;47.816;9.644;2022-08-01T08:15:26;7.03;;;2.20;;
20326;SDS011;20947;47.816;9.644;2022-08-01T08:19:27;7.47;;;2.33;;
20326;SDS011;20947;47.816;9.644;2022-08-01T08:23:33;12.27;;;2.50;;
20326;SDS011;20947;47.816;9.644;2022-08-01T08:27:52;12.20;;;2.70;;
20326;SDS011;20947;47.816;9.644;2022-08-01T08:31:55;6.50;;;2.50;;
20326;SDS011;20947;47.816;9.644;2022-08-01T08:35:57;6.85;;;2.20;;
20326;SDS011;20947;47.816;9.644;2022-08-01T08:39:58;6.63;;;2.20;;
20326;SDS011;20947;47.816;9.644;2022-08-01T08:44:00;11.13;;;2.30;;
20326;SDS011;20947;47.816;9.644;2022-08-01T08:48:01;4.55;;;2.00;;
20326;SDS011;20947;47.816;9.644;2022-08-01T08:52:03;5.97;;;2.20;;
20326;SDS011;20947;47.816;9.644;2022-08-01T08:56:05;4.25;;;1.73;;
20326;SDS011;20947;47.816;9.644;2022-08-01T09:00:10;7.10;;;2.30;;
20326;SDS011;20947;47.816;9.644;2022-08-01T09:04:16;4.05;;;2.15;;
20326;SDS011;20947;47.816;9.644;2022-08-01T09:08:17;5.82;;;2.30;;
20326;SDS011;20947;47.816;9.644;2022-08-01T09:12:20;5.07;;;2.08;;
20326;SDS011;20947;47.816;9.644;2022-08-01T09:16:20;4.10;;;1.90;;
20326;SDS011;20947;47.816;9.644;2022-08-01T09:20:24;4.60;;;2.40;;
20326;SDS011;20947;47.816;9.644;2022-08-01T09:24:27;3.88;;;2.10;;
20326;SDS011;20947;47.816;9.644;2022-08-01T09:28:31;6.47;;;2.00;;
20326;SDS011;20947;47.816;9.644;2022-08-01T09:32:35;4.95;;;1.83;;
20326;SDS011;20947;47.816;9.644;2022-08-01T09:36:44;3.28;;;1.80;;
20326;SDS011;20947;47.816;9.644;2022-08-01T09:44:59;5.13;;;2.00;;
20326;SDS011;20947;47.816;9.644;2022-08-01T09:49:05;4.73;;;2.00;;
20326;SDS011;20947;47.816;9.644;2022-08-01T09:53:09;3.73;;;1.70;;
20326;SDS011;20947;47.816;9.644;2022-08-01T09:57:17;6.93;;;2.00;;
20326;SDS011;20947;47.816;9.644;2022-08-01T10:01:21;5.65;;;2.00;;
20326;SDS011;20947;47.816;9.644;2022-08-01T10:05:32;2.60;;;2.00;;
20326;SDS011;20947;47.816;9.644;2022-08-01T10:09:35;3.22;;;1.92;;
20326;SDS011;20947;47.816;9.644;2022-08-01T10:13:37;3.70;;;2.10;;
20326;SDS011;20947;47.816;9.644;2022-08-01T10:17:40;4.70;;;2.07;;
20326;SDS011;20947;47.816;9.644;2022-08-01T10:21:51;2.90;;;1.77;;
20326;SDS011;20947;47.816;9.644;2022-08-01T10:25:56;5.13;;;1.90;;
20326;SDS011;20947;47.816;9.644;2022-08-01T10:30:03;3.85;;;2.00;;
20326;SDS011;20947;47.816;9.644;2022-08-01T10:34:08;4.80;;;1.80;;
20326;SDS011;20947;47.816;9.644;2022-08-01T10:38:12;4.03;;;1.90;;
20326;SDS011;20947;47.816;9.644;2022-08-01T10:42:18;6.13;;;1.93;;
20326;SDS011;20947;47.816;9.644;2022-08-01T10:46:21;4.40;;;1.80;;
20326;SDS011;20947;47.816;9.644;2022-08-01T10:54:39;3.00;;;1.70;;
20326;SDS011;20947;47.816;9.644;2022-08-01T10:58:44;3.72;;;1.80;;
20326;SDS011;20947;47.816;9.644;2022-08-01T11:02:59;3.63;;;1.75;;
20326;SDS011;20947;47.816;9.644;2022-08-01T11:07:07;3.90;;;1.60;;
20326;SDS011;20947;47.816;9.644;2022-08-01T11:11:15;3.80;;;1.83;;
20326;SDS011;20947;47.816;9.644;2022-08-01T11:15:17;4.68;;;1.90;;
20326;SDS011;20947;47.816;9.644;2022-08-01T11:19:24;4.50;;;1.90;;
20326;SDS011;20947;47.816;9.644;2022-08-01T11:28:46;6.55;;;1.92;;
20326;SDS011;20947;47.816;9.644;2022-08-01T11:33:19;4.03;;;1.70;;
20326;SDS011;20947;47.816;9.644;2022-08-01T11:37:39;4.10;;;1.55;;
20326;SDS011;20947;47.816;9.644;2022-08-01T11:41:41;3.55;;;1.60;;
20326;SDS011;20947;47.816;9.644;2022-08-01T11:45:49;2.53;;;1.50;;
20326;SDS011;20947;47.816;9.644;2022-08-01T11:49:55;2.72;;;1.55;;
20326;SDS011;20947;47.816;9.644;2022-08-01T11:53:59;2.50;;;1.40;;
20326;SDS011;20947;47.816;9.644;2022-08-01T12:02:21;2.55;;;1.52;;
20326;SDS011;20947;47.816;9.644;2022-08-01T12:06:27;3.50;;;1.30;;
20326;SDS011;20947;47.816;9.644;2022-08-01T12:10:35;4.40;;;1.40;;
20326;SDS011;20947;47.816;9.644;2022-08-01T12:14:36;2.90;;;1.47;;
20326;SDS011;20947;47.816;9.644;2022-08-01T12:18:41;2.40;;;1.40;;
20326;SDS011;20947;47.816;9.644;2022-08-01T12:22:44;2.40;;;1.60;;
20326;SDS011;20947;47.816;9.644;2022-08-01T12:26:47;3.50;;;1.50;;
20326;SDS011;20947;47.816;9.644;2022-08-01T12:30:48;2.90;;;1.42;;
20326;SDS011;20947;47.816;9.644;2022-08-01T12:34:52;2.10;;;1.50;;
20326;SDS011;20947;47.816;9.644;2022-08-01T12:38:59;2.70;;;1.50;;
20326;SDS011;20947;47.816;9.644;2022-08-01T12:43:03;3.65;;;1.63;;
20326;SDS011;20947;47.816;9.644;2022-08-01T12:47:06;3.00;;;1.40;;
20326;SDS011;20947;47.816;9.644;2022-08-01T12:51:07;2.15;;;1.40;;
20326;SDS011;20947;47.816;9.644;2022-08-01T12:55:18;2.30;;;1.30;;
20326;SDS011;20947;47.816;9.644;2022-08-01T12:59:21;2.72;;;1.50;;
20326;SDS011;20947;47.816;9.644;2022-08-01T13:03:26;3.22;;;1.70;;
20326;SDS011;20947;47.816;9.644;2022-08-01T13:11:50;2.10;;;1.40;;
20326;SDS011;20947;47.816;9.644;2022-08-01T13:16:04;2.20;;;1.40;;
20326;SDS011;20947;47.816;9.644;2022-08-01T13:20:07;3.20;;;1.50;;
20326;SDS011;20947;47.816;9.644;2022-08-01T13:28:16;2.20;;;1.30;;
20326;SDS011;20947;47.816;9.644;2022-08-01T13:32:21;3.17;;;1.40;;
20326;SDS011;20947;47.816;9.644;2022-08-01T13:36:22;4.63;;;1.55;;
20326;SDS011;20947;47.816;9.644;2022-08-01T13:40:26;2.70;;;1.53;;
20326;SDS011;20947;47.816;9.644;2022-08-01T13:44:29;2.93;;;1.50;;
20326;SDS011;20947;47.816;9.644;2022-08-01T13:48:33;2.80;;;1.30;;
20326;SDS011;20947;47.816;9.644;2022-08-01T13:52:33;3.08;;;1.30;;
20326;SDS011;20947;47.816;9.644;2022-08-01T13:56:38;3.90;;;1.40;;
20326;SDS011;20947;47.816;9.644;2022-08-01T14:00:42;2.17;;;1.37;;
20326;SDS011;20947;47.816;9.644;2022-08-01T14:04:42;2.50;;;1.45;;
20326;SDS011;20947;47.816;9.644;2022-08-01T14:08:43;3.50;;;1.40;;
20326;SDS011;20947;47.816;9.644;2022-08-01T14:12:49;2.40;;;1.50;;
20326;SDS011;20947;47.816;9.644;2022-08-01T14:16:54;2.25;;;1.30;;
20326;SDS011;20947;47.816;9.644;2022-08-01T14:20:57;1.70;;;1.17;;
20326;SDS011;20947;47.816;9.644;2022-08-01T14:25:00;2.38;;;1.40;;
20326;SDS011;20947;47.816;9.644;2022-08-01T14:29:00;2.00;;;1.30;;
20326;SDS011;20947;47.816;9.644;2022-08-01T14:33:06;3.60;;;1.65;;
20326;SDS011;20947;47.816;9.644;2022-08-01T14:37:06;2.53;;;1.38;;
20326;SDS011;20947;47.816;9.644;2022-08-01T14:41:07;1.80;;;1.30;;
20326;SDS011;20947;47.816;9.644;2022-08-01T14:45:08;3.37;;;1.30;;
20326;SDS011;20947;47.816;9.644;2022-08-01T14:49:11;8.90;;;1.88;;
20326;SDS011;20947;47.816;9.644;2022-08-01T14:53:14;7.57;;;1.50;;
20326;SDS011;20947;47.816;9.644;2022-08-01T14:57:19;7.63;;;2.00;;
20326;SDS011;20947;47.816;9.644;2022-08-01T15:01:22;6.82;;;1.60;;
20326;SDS011;20947;47.816;9.644;2022-08-01T15:05:23;3.80;;;1.38;;
20326;SDS011;20947;47.816;9.644;2022-08-01T15:09:28;3.78;;;1.30;;
20326;SDS011;20947;47.816;9.644;2022-08-01T15:13:28;6.80;;;1.90;;
20326;SDS011;20947;47.816;9.644;2022-08-01T15:17:29;4.17;;;1.50;;
20326;SDS011;20947;47.816;9.644;2022-08-01T15:21:32;5.90;;;1.80;;
20326;SDS011;20947;47.816;9.644;2022-08-01T15:25:34;8.27;;;1.83;;
20326;SDS011;20947;47.816;9.644;2022-08-01T15:29:37;5.05;;;1.58;;
20326;SDS011;20947;47.816;9.644;2022-08-01T15:33:41;6.95;;;1.65;;
20326;SDS011;20947;47.816;9.644;2022-08-01T15:37:44;6.35;;;2.10;;
20326;SDS011;20947;47.816;9.644;2022-08-01T15:41:46;3.30;;;1.60;;
20326;SDS011;20947;47.816;9.644;2022-08-01T15:45:50;4.70;;;1.60;;
20326;SDS011;20947;47.816;9.644;2022-08-01T15:49:53;7.20;;;1.70;;
20326;SDS011;20947;47.816;9.644;2022-08-01T15:53:55;2.97;;;1.73;;
20326;SDS011;20947;47.816;9.644;2022-08-01T15:58:02;7.73;;;1.90;;
20326;SDS011;20947;47.816;9.644;2022-08-01T16:02:03;5.43;;;1.63;;
20326;SDS011;20947;47.816;9.644;2022-08-01T16:06:03;6.40;;;1.70;;
20326;SDS011;20947;47.816;9.644;2022-08-01T16:10:07;4.13;;;1.73;;
20326;SDS011;20947;47.816;9.644;2022-08-01T16:14:08;9.93;;;1.80;;
20326;SDS011;20947;47.816;9.644;2022-08-01T16:18:11;5.03;;;1.70;;
20326;SDS011;20947;47.816;9.644;2022-08-01T16:22:12;5.45;;;1.70;;
20326;SDS011;20947;47.816;9.644;2022-08-01T16:26:15;4.20;;;1.33;;
20326;SDS011;20947;47.816;9.644;2022-08-01T16:30:17;4.87;;;1.87;;
20326;SDS011;20947;47.816;9.644;2022-08-01T16:34:24;2.90;;;1.40;;
20326;SDS011;20947;47.816;9.644;2022-08-01T16:38:25;4.87;;;1.70;;
20326;SDS011;20947;47.816;9.644;2022-08-01T16:42:28;2.60;;;1.50;;
20326;SDS011;20947;47.816;9.644;2022-08-01T16:46:31;2.80;;;1.53;;
20326;SDS011;20947;47.816;9.644;2022-08-01T16:50:32;3.38;;;1.50;;
20326;SDS011;20947;47.816;9.644;2022-08-01T16:54:34;3.00;;;1.45;;
20326;SDS011;20947;47.816;9.644;2022-08-01T16:58:37;4.28;;;1.50;;
20326;SDS011;20947;47.816;9.644;2022-08-01T17:02:38;4.60;;;1.50;;
20326;SDS011;20947;47.816;9.644;2022-08-01T17:06:44;2.60;;;1.60;;
20326;SDS011;20947;47.816;9.644;2022-08-01T17:10:49;3.83;;;1.50;;
20326;SDS011;20947;47.816;9.644;2022-08-01T17:14:51;3.03;;;1.60;;
20326;SDS011;20947;47.816;9.644;2022-08-01T17:18:51;4.40;;;1.40;;
20326;SDS011;20947;47.816;9.644;2022-08-01T17:22:54;2.30;;;1.25;;
20326;SDS011;20947;47.816;9.644;2022-08-01T17:27:02;2.23;;;1.20;;
20326;SDS011;20947;47.816;9.644;2022-08-01T17:31:05;4.00;;;1.50;;
20326;SDS011;20947;47.816;9.644;2022-08-01T17:35:07;4.20;;;1.70;;
20326;SDS011;20947;47.816;9.644;2022-08-01T17:39:11;3.67;;;1.55;;
20326;SDS011;20947;47.816;9.644;2022-08-01T17:43:14;3.50;;;1.88;;
20326;SDS011;20947;47.816;9.644;2022-08-01T17:47:17;3.00;;;1.60;;
20326;SDS011;20947;47.816;9.644;2022-08-01T17:51:18;2.70;;;1.47;;
20326;SDS011;20947;47.816;9.644;2022-08-01T17:55:23;3.83;;;1.65;;
20326;SDS011;20947;47.816;9.644;2022-08-01T17:59:26;3.50;;;1.50;;
20326;SDS011;20947;47.816;9.644;2022-08-01T18:03:27;3.17;;;1.77;;
20326;SDS011;20947;47.816;9.644;2022-08-01T18:07:30;2.63;;;1.40;;
20326;SDS011;20947;47.816;9.644;2022-08-01T18:11:30;4.40;;;1.40;;
20326;SDS011;20947;47.816;9.644;2022-08-01T18:15:31;16.23;;;2.50;;
20326;SDS011;20947;47.816;9.644;2022-08-01T18:19:34;19.30;;;3.07;;
20326;SDS011;20947;47.816;9.644;2022-08-01T18:23:39;7.60;;;2.00;;
